sensor_id;sensor_type;location;lat;lon;timestamp;P1;durP1;ratioP1;P2;durP2;ratioP2
64633;SDS011;51043;52.406;9.690;2022-10-12T00:00:34;22.53;;;8.77;;
64633;SDS011;51043;52.406;9.690;2022-10-12T00:03:01;22.70;;;7.87;;
64633;SDS011;51043;52.406;9.690;2022-10-12T00:05:31;22.33;;;8.57;;
64633;SDS011;51043;52.406;9.690;2022-10-12T00:07:58;21.27;;;8.33;;
64633;SDS011;51043;52.406;9.690;2022-10-12T00:10:25;19.17;;;8.10;;
64633;SDS011;51043;52.406;9.690;2022-10-12T00:12:52;15.77;;;7.37;;
64633;SDS011;51043;52.406;9.690;2022-10-12T00:15:19;19.23;;;8.00;;
64633;SDS011;51043;52.406;9.690;2022-10-12T00:17:45;18.30;;;7.97;;
64633;SDS011;51043;52.406;9.690;2022-10-12T00:20:12;18.67;;;8.40;;
64633;SDS011;51043;52.406;9.690;2022-10-12T00:22:39;28.80;;;8.13;;
64633;SDS011;51043;52.406;9.690;2022-10-12T00:25:06;20.77;;;8.30;;
64633;SDS011;51043;52.406;9.690;2022-10-12T00:27:33;18.20;;;7.03;;
64633;SDS011;51043;52.406;9.690;2022-10-12T00:30:00;16.50;;;6.77;;
64633;SDS011;51043;52.406;9.690;2022-10-12T00:32:27;21.60;;;8.13;;
64633;SDS011;51043;52.406;9.690;2022-10-12T00:34:54;16.20;;;7.57;;
64633;SDS011;51043;52.406;9.690;2022-10-12T00:37:21;24.87;;;7.93;;
64633;SDS011;51043;52.406;9.690;2022-10-12T00:39:55;23.53;;;8.03;;
64633;SDS011;51043;52.406;9.690;2022-10-12T00:42:22;20.60;;;8.13;;
64633;SDS011;51043;52.406;9.690;2022-10-12T00:44:50;18.20;;;7.80;;
64633;SDS011;51043;52.406;9.690;2022-10-12T00:47:22;18.00;;;8.20;;
64633;SDS011;51043;52.406;9.690;2022-10-12T00:50:07;15.80;;;7.83;;
64633;SDS011;51043;52.406;9.690;2022-10-12T00:52:42;19.73;;;7.87;;
64633;SDS011;51043;52.406;9.690;2022-10-12T00:55:13;17.77;;;7.40;;
64633;SDS011;51043;52.406;9.690;2022-10-12T00:57:43;16.23;;;7.50;;
64633;SDS011;51043;52.406;9.690;2022-10-12T01:00:12;16.87;;;7.03;;
64633;SDS011;51043;52.406;9.690;2022-10-12T01:02:40;23.00;;;7.13;;
64633;SDS011;51043;52.406;9.690;2022-10-12T01:05:09;25.70;;;7.70;;
64633;SDS011;51043;52.406;9.690;2022-10-12T01:07:37;20.37;;;7.47;;
64633;SDS011;51043;52.406;9.690;2022-10-12T01:10:04;16.40;;;7.20;;
64633;SDS011;51043;52.406;9.690;2022-10-12T01:12:32;21.80;;;7.27;;
64633;SDS011;51043;52.406;9.690;2022-10-12T01:15:00;15.97;;;6.70;;
64633;SDS011;51043;52.406;9.690;2022-10-12T01:17:36;24.80;;;7.47;;
64633;SDS011;51043;52.406;9.690;2022-10-12T01:31:35;18.10;;;6.67;;
64633;SDS011;51043;52.406;9.690;2022-10-12T01:34:15;18.50;;;6.80;;
64633;SDS011;51043;52.406;9.690;2022-10-12T01:36:49;16.97;;;7.23;;
64633;SDS011;51043;52.406;9.690;2022-10-12T01:39:29;13.80;;;6.83;;
64633;SDS011;51043;52.406;9.690;2022-10-12T01:42:02;14.80;;;7.10;;
64633;SDS011;51043;52.406;9.690;2022-10-12T01:44:39;17.10;;;7.83;;
64633;SDS011;51043;52.406;9.690;2022-10-12T01:47:08;19.20;;;7.10;;
64633;SDS011;51043;52.406;9.690;2022-10-12T01:49:36;14.17;;;7.03;;
64633;SDS011;51043;52.406;9.690;2022-10-12T01:52:25;19.80;;;6.77;;
64633;SDS011;51043;52.406;9.690;2022-10-12T02:00:20;12.97;;;6.50;;
64633;SDS011;51043;52.406;9.690;2022-10-12T02:11:36;20.33;;;6.53;;
64633;SDS011;51043;52.406;9.690;2022-10-12T02:14:17;16.10;;;6.00;;
64633;SDS011;51043;52.406;9.690;2022-10-12T02:16:52;17.70;;;6.73;;
64633;SDS011;51043;52.406;9.690;2022-10-12T02:19:27;14.23;;;5.80;;
64633;SDS011;51043;52.406;9.690;2022-10-12T02:21:59;19.07;;;6.27;;
64633;SDS011;51043;52.406;9.690;2022-10-12T02:24:30;17.80;;;6.77;;
64633;SDS011;51043;52.406;9.690;2022-10-12T02:26:58;17.30;;;6.13;;
64633;SDS011;51043;52.406;9.690;2022-10-12T02:29:28;19.13;;;6.20;;
64633;SDS011;51043;52.406;9.690;2022-10-12T02:32:26;15.17;;;5.67;;
64633;SDS011;51043;52.406;9.690;2022-10-12T02:35:13;17.90;;;5.90;;
64633;SDS011;51043;52.406;9.690;2022-10-12T02:37:53;19.00;;;6.50;;
64633;SDS011;51043;52.406;9.690;2022-10-12T02:40:37;22.47;;;6.13;;
64633;SDS011;51043;52.406;9.690;2022-10-12T02:43:12;17.03;;;5.93;;
64633;SDS011;51043;52.406;9.690;2022-10-12T02:45:45;12.50;;;5.70;;
64633;SDS011;51043;52.406;9.690;2022-10-12T02:48:18;15.20;;;5.73;;
64633;SDS011;51043;52.406;9.690;2022-10-12T02:50:49;15.70;;;5.67;;
64633;SDS011;51043;52.406;9.690;2022-10-12T02:53:20;16.47;;;5.13;;
64633;SDS011;51043;52.406;9.690;2022-10-12T02:55:49;14.27;;;5.67;;
64633;SDS011;51043;52.406;9.690;2022-10-12T02:58:17;15.63;;;5.73;;
64633;SDS011;51043;52.406;9.690;2022-10-12T03:00:44;16.33;;;5.63;;
64633;SDS011;51043;52.406;9.690;2022-10-12T03:03:11;19.57;;;6.00;;
64633;SDS011;51043;52.406;9.690;2022-10-12T03:05:38;17.80;;;5.70;;
64633;SDS011;51043;52.406;9.690;2022-10-12T03:08:05;17.87;;;5.50;;
64633;SDS011;51043;52.406;9.690;2022-10-12T03:10:31;17.20;;;5.53;;
64633;SDS011;51043;52.406;9.690;2022-10-12T03:12:58;12.33;;;4.80;;
64633;SDS011;51043;52.406;9.690;2022-10-12T03:15:25;12.60;;;5.10;;
64633;SDS011;51043;52.406;9.690;2022-10-12T03:17:52;13.90;;;5.70;;
64633;SDS011;51043;52.406;9.690;2022-10-12T03:20:19;13.53;;;5.27;;
64633;SDS011;51043;52.406;9.690;2022-10-12T03:22:46;13.80;;;5.80;;
64633;SDS011;51043;52.406;9.690;2022-10-12T03:25:13;14.07;;;5.33;;
64633;SDS011;51043;52.406;9.690;2022-10-12T03:27:39;18.00;;;4.67;;
64633;SDS011;51043;52.406;9.690;2022-10-12T03:30:07;15.63;;;4.70;;
64633;SDS011;51043;52.406;9.690;2022-10-12T03:32:34;12.53;;;5.27;;
64633;SDS011;51043;52.406;9.690;2022-10-12T03:35:01;11.57;;;4.97;;
64633;SDS011;51043;52.406;9.690;2022-10-12T03:37:28;15.97;;;5.17;;
64633;SDS011;51043;52.406;9.690;2022-10-12T03:39:55;12.23;;;4.40;;
64633;SDS011;51043;52.406;9.690;2022-10-12T03:42:22;17.20;;;4.80;;
64633;SDS011;51043;52.406;9.690;2022-10-12T03:44:49;23.37;;;5.10;;
64633;SDS011;51043;52.406;9.690;2022-10-12T03:47:16;21.13;;;5.23;;
64633;SDS011;51043;52.406;9.690;2022-10-12T03:49:43;17.57;;;5.30;;
64633;SDS011;51043;52.406;9.690;2022-10-12T03:52:10;17.90;;;5.40;;
64633;SDS011;51043;52.406;9.690;2022-10-12T03:54:37;22.00;;;5.30;;
64633;SDS011;51043;52.406;9.690;2022-10-12T03:57:03;14.23;;;4.70;;
64633;SDS011;51043;52.406;9.690;2022-10-12T03:59:30;18.70;;;6.23;;
64633;SDS011;51043;52.406;9.690;2022-10-12T04:01:57;14.40;;;4.47;;
64633;SDS011;51043;52.406;9.690;2022-10-12T04:04:24;12.13;;;4.43;;
64633;SDS011;51043;52.406;9.690;2022-10-12T04:06:51;19.70;;;5.17;;
64633;SDS011;51043;52.406;9.690;2022-10-12T04:09:17;14.93;;;4.93;;
64633;SDS011;51043;52.406;9.690;2022-10-12T04:11:44;20.73;;;5.40;;
64633;SDS011;51043;52.406;9.690;2022-10-12T04:14:11;15.20;;;5.00;;
64633;SDS011;51043;52.406;9.690;2022-10-12T04:16:38;21.73;;;5.20;;
64633;SDS011;51043;52.406;9.690;2022-10-12T04:19:04;11.67;;;4.43;;
64633;SDS011;51043;52.406;9.690;2022-10-12T04:21:31;15.10;;;5.40;;
64633;SDS011;51043;52.406;9.690;2022-10-12T04:23:58;14.47;;;5.17;;
64633;SDS011;51043;52.406;9.690;2022-10-12T04:26:25;21.10;;;5.27;;
64633;SDS011;51043;52.406;9.690;2022-10-12T04:28:52;16.90;;;5.40;;
64633;SDS011;51043;52.406;9.690;2022-10-12T04:31:18;18.77;;;5.40;;
64633;SDS011;51043;52.406;9.690;2022-10-12T04:33:45;16.63;;;5.07;;
64633;SDS011;51043;52.406;9.690;2022-10-12T04:36:12;24.83;;;5.40;;
64633;SDS011;51043;52.406;9.690;2022-10-12T04:38:39;13.03;;;5.17;;
64633;SDS011;51043;52.406;9.690;2022-10-12T04:41:06;19.43;;;5.50;;
64633;SDS011;51043;52.406;9.690;2022-10-12T04:43:32;18.40;;;5.33;;
64633;SDS011;51043;52.406;9.690;2022-10-12T04:45:59;22.53;;;5.20;;
64633;SDS011;51043;52.406;9.690;2022-10-12T04:48:26;22.97;;;5.07;;
64633;SDS011;51043;52.406;9.690;2022-10-12T04:50:54;16.00;;;4.97;;
64633;SDS011;51043;52.406;9.690;2022-10-12T04:53:21;20.90;;;5.87;;
64633;SDS011;51043;52.406;9.690;2022-10-12T04:55:47;16.00;;;5.50;;
64633;SDS011;51043;52.406;9.690;2022-10-12T04:58:14;22.50;;;6.43;;
64633;SDS011;51043;52.406;9.690;2022-10-12T05:00:41;16.63;;;4.93;;
64633;SDS011;51043;52.406;9.690;2022-10-12T05:03:08;13.60;;;4.70;;
64633;SDS011;51043;52.406;9.690;2022-10-12T05:05:35;17.97;;;5.10;;
64633;SDS011;51043;52.406;9.690;2022-10-12T05:08:03;16.23;;;5.03;;
64633;SDS011;51043;52.406;9.690;2022-10-12T05:10:31;13.60;;;4.17;;
64633;SDS011;51043;52.406;9.690;2022-10-12T05:12:58;15.23;;;5.30;;
64633;SDS011;51043;52.406;9.690;2022-10-12T05:15:24;21.73;;;5.33;;
64633;SDS011;51043;52.406;9.690;2022-10-12T05:17:51;18.97;;;5.40;;
64633;SDS011;51043;52.406;9.690;2022-10-12T05:20:18;22.33;;;5.73;;
64633;SDS011;51043;52.406;9.690;2022-10-12T05:22:45;13.00;;;4.83;;
64633;SDS011;51043;52.406;9.690;2022-10-12T05:25:12;16.10;;;4.97;;
64633;SDS011;51043;52.406;9.690;2022-10-12T05:27:39;15.17;;;5.37;;
64633;SDS011;51043;52.406;9.690;2022-10-12T05:30:06;25.77;;;6.03;;
64633;SDS011;51043;52.406;9.690;2022-10-12T05:32:36;18.50;;;5.27;;
64633;SDS011;51043;52.406;9.690;2022-10-12T05:35:12;21.07;;;5.33;;
64633;SDS011;51043;52.406;9.690;2022-10-12T05:37:39;20.87;;;5.73;;
64633;SDS011;51043;52.406;9.690;2022-10-12T05:40:06;23.50;;;6.33;;
64633;SDS011;51043;52.406;9.690;2022-10-12T05:42:34;23.10;;;6.40;;
64633;SDS011;51043;52.406;9.690;2022-10-12T05:45:01;23.43;;;6.30;;
64633;SDS011;51043;52.406;9.690;2022-10-12T05:47:29;14.67;;;6.20;;
64633;SDS011;51043;52.406;9.690;2022-10-12T05:49:58;15.80;;;7.10;;
64633;SDS011;51043;52.406;9.690;2022-10-12T05:52:29;21.10;;;6.60;;
64633;SDS011;51043;52.406;9.690;2022-10-12T05:55:05;17.90;;;7.17;;
64633;SDS011;51043;52.406;9.690;2022-10-12T05:57:32;19.73;;;7.93;;
64633;SDS011;51043;52.406;9.690;2022-10-12T05:59:59;18.03;;;7.37;;
64633;SDS011;51043;52.406;9.690;2022-10-12T06:02:26;19.90;;;7.60;;
64633;SDS011;51043;52.406;9.690;2022-10-12T06:04:53;18.20;;;7.83;;
64633;SDS011;51043;52.406;9.690;2022-10-12T06:07:19;17.63;;;7.53;;
64633;SDS011;51043;52.406;9.690;2022-10-12T06:09:46;24.87;;;7.03;;
64633;SDS011;51043;52.406;9.690;2022-10-12T06:12:14;19.50;;;7.47;;
64633;SDS011;51043;52.406;9.690;2022-10-12T06:14:42;26.03;;;8.97;;
64633;SDS011;51043;52.406;9.690;2022-10-12T06:17:09;23.00;;;7.07;;
64633;SDS011;51043;52.406;9.690;2022-10-12T06:19:36;25.83;;;7.33;;
64633;SDS011;51043;52.406;9.690;2022-10-12T06:22:06;22.40;;;7.43;;
64633;SDS011;51043;52.406;9.690;2022-10-12T06:24:33;24.83;;;7.00;;
64633;SDS011;51043;52.406;9.690;2022-10-12T06:27:01;26.50;;;8.10;;
64633;SDS011;51043;52.406;9.690;2022-10-12T06:29:28;25.37;;;6.83;;
64633;SDS011;51043;52.406;9.690;2022-10-12T06:31:55;27.33;;;6.80;;
64633;SDS011;51043;52.406;9.690;2022-10-12T06:34:31;28.63;;;7.77;;
64633;SDS011;51043;52.406;9.690;2022-10-12T06:36:57;28.13;;;7.50;;
64633;SDS011;51043;52.406;9.690;2022-10-12T06:39:26;23.67;;;6.57;;
64633;SDS011;51043;52.406;9.690;2022-10-12T06:41:54;19.07;;;4.87;;
64633;SDS011;51043;52.406;9.690;2022-10-12T06:44:26;14.10;;;4.57;;
64633;SDS011;51043;52.406;9.690;2022-10-12T06:46:59;12.70;;;4.33;;
64633;SDS011;51043;52.406;9.690;2022-10-12T06:49:26;10.97;;;3.70;;
64633;SDS011;51043;52.406;9.690;2022-10-12T06:51:53;15.17;;;3.77;;
64633;SDS011;51043;52.406;9.690;2022-10-12T06:54:21;12.20;;;3.93;;
64633;SDS011;51043;52.406;9.690;2022-10-12T06:56:48;10.40;;;3.90;;
64633;SDS011;51043;52.406;9.690;2022-10-12T06:59:14;12.27;;;3.93;;
64633;SDS011;51043;52.406;9.690;2022-10-12T07:01:42;8.53;;;3.73;;
64633;SDS011;51043;52.406;9.690;2022-10-12T07:04:10;10.23;;;3.87;;
64633;SDS011;51043;52.406;9.690;2022-10-12T07:06:37;9.67;;;3.40;;
64633;SDS011;51043;52.406;9.690;2022-10-12T07:09:04;11.63;;;3.40;;
64633;SDS011;51043;52.406;9.690;2022-10-12T07:11:31;11.30;;;3.53;;
64633;SDS011;51043;52.406;9.690;2022-10-12T07:13:58;8.90;;;3.73;;
64633;SDS011;51043;52.406;9.690;2022-10-12T07:16:25;8.77;;;3.80;;
64633;SDS011;51043;52.406;9.690;2022-10-12T07:18:51;16.77;;;4.20;;
64633;SDS011;51043;52.406;9.690;2022-10-12T07:21:18;11.87;;;4.00;;
64633;SDS011;51043;52.406;9.690;2022-10-12T07:23:47;9.97;;;3.40;;
64633;SDS011;51043;52.406;9.690;2022-10-12T07:26:14;10.50;;;3.57;;
64633;SDS011;51043;52.406;9.690;2022-10-12T07:28:41;9.67;;;3.53;;
64633;SDS011;51043;52.406;9.690;2022-10-12T07:31:08;12.48;;;3.90;;
64633;SDS011;51043;52.406;9.690;2022-10-12T07:33:36;9.55;;;3.33;;
64633;SDS011;51043;52.406;9.690;2022-10-12T07:36:12;13.52;;;3.13;;
64633;SDS011;51043;52.406;9.690;2022-10-12T07:38:41;9.70;;;3.42;;
64633;SDS011;51043;52.406;9.690;2022-10-12T07:41:12;12.05;;;3.47;;
64633;SDS011;51043;52.406;9.690;2022-10-12T07:43:40;8.60;;;3.22;;
64633;SDS011;51043;52.406;9.690;2022-10-12T07:46:07;7.30;;;2.88;;
64633;SDS011;51043;52.406;9.690;2022-10-12T07:48:34;9.90;;;3.05;;
64633;SDS011;51043;52.406;9.690;2022-10-12T07:51:02;13.23;;;3.30;;
64633;SDS011;51043;52.406;9.690;2022-10-12T07:53:33;17.10;;;3.42;;
64633;SDS011;51043;52.406;9.690;2022-10-12T07:56:00;11.77;;;3.40;;
64633;SDS011;51043;52.406;9.690;2022-10-12T07:58:28;10.52;;;3.45;;
64633;SDS011;51043;52.406;9.690;2022-10-12T08:00:55;8.55;;;2.97;;
64633;SDS011;51043;52.406;9.690;2022-10-12T08:03:29;12.25;;;3.20;;
64633;SDS011;51043;52.406;9.690;2022-10-12T08:05:56;13.00;;;3.53;;
64633;SDS011;51043;52.406;9.690;2022-10-12T08:08:23;10.65;;;3.10;;
64633;SDS011;51043;52.406;9.690;2022-10-12T08:10:52;20.40;;;3.60;;
64633;SDS011;51043;52.406;9.690;2022-10-12T08:13:19;12.60;;;3.97;;
64633;SDS011;51043;52.406;9.690;2022-10-12T08:15:49;12.43;;;3.55;;
64633;SDS011;51043;52.406;9.690;2022-10-12T08:18:16;10.20;;;3.80;;
64633;SDS011;51043;52.406;9.690;2022-10-12T08:20:43;9.88;;;3.95;;
64633;SDS011;51043;52.406;9.690;2022-10-12T08:23:09;13.05;;;3.60;;
64633;SDS011;51043;52.406;9.690;2022-10-12T08:25:41;15.35;;;4.15;;
64633;SDS011;51043;52.406;9.690;2022-10-12T08:28:09;15.02;;;4.22;;
64633;SDS011;51043;52.406;9.690;2022-10-12T08:30:37;13.40;;;4.47;;
64633;SDS011;51043;52.406;9.690;2022-10-12T08:33:04;7.73;;;3.83;;
64633;SDS011;51043;52.406;9.690;2022-10-12T08:35:36;12.73;;;3.83;;
64633;SDS011;51043;52.406;9.690;2022-10-12T08:38:04;13.13;;;4.30;;
64633;SDS011;51043;52.406;9.690;2022-10-12T08:40:33;11.80;;;4.33;;
64633;SDS011;51043;52.406;9.690;2022-10-12T08:43:07;14.17;;;4.33;;
64633;SDS011;51043;52.406;9.690;2022-10-12T08:45:40;14.73;;;4.23;;
64633;SDS011;51043;52.406;9.690;2022-10-12T08:50:54;11.70;;;4.07;;
64633;SDS011;51043;52.406;9.690;2022-10-12T08:53:32;11.87;;;4.27;;
64633;SDS011;51043;52.406;9.690;2022-10-12T08:56:16;14.53;;;4.67;;
64633;SDS011;51043;52.406;9.690;2022-10-12T08:58:45;19.07;;;4.93;;
64633;SDS011;51043;52.406;9.690;2022-10-12T09:06:46;14.13;;;3.93;;
64633;SDS011;51043;52.406;9.690;2022-10-12T09:09:42;16.33;;;4.50;;
64633;SDS011;51043;52.406;9.690;2022-10-12T09:15:19;15.30;;;4.53;;
64633;SDS011;51043;52.406;9.690;2022-10-12T09:17:55;9.67;;;4.37;;
64633;SDS011;51043;52.406;9.690;2022-10-12T09:20:34;18.53;;;4.60;;
64633;SDS011;51043;52.406;9.690;2022-10-12T09:23:29;20.40;;;4.33;;
64633;SDS011;51043;52.406;9.690;2022-10-12T09:28:57;10.97;;;3.97;;
64633;SDS011;51043;52.406;9.690;2022-10-12T09:34:29;14.20;;;3.87;;
64633;SDS011;51043;52.406;9.690;2022-10-12T09:36:57;16.10;;;4.43;;
64633;SDS011;51043;52.406;9.690;2022-10-12T09:41:56;16.67;;;4.43;;
64633;SDS011;51043;52.406;9.690;2022-10-12T09:52:44;14.15;;;3.83;;
64633;SDS011;51043;52.406;9.690;2022-10-12T09:57:51;8.15;;;3.15;;
64633;SDS011;51043;52.406;9.690;2022-10-12T10:00:23;11.13;;;3.55;;
64633;SDS011;51043;52.406;9.690;2022-10-12T10:02:53;12.40;;;3.22;;
64633;SDS011;51043;52.406;9.690;2022-10-12T10:05:22;11.57;;;3.08;;
64633;SDS011;51043;52.406;9.690;2022-10-12T10:07:50;10.20;;;3.10;;
64633;SDS011;51043;52.406;9.690;2022-10-12T10:10:18;10.18;;;3.33;;
64633;SDS011;51043;52.406;9.690;2022-10-12T10:12:55;10.65;;;3.10;;
64633;SDS011;51043;52.406;9.690;2022-10-12T10:15:28;10.77;;;2.97;;
64633;SDS011;51043;52.406;9.690;2022-10-12T10:20:30;8.57;;;3.28;;
64633;SDS011;51043;52.406;9.690;2022-10-12T10:22:59;9.55;;;3.05;;
64633;SDS011;51043;52.406;9.690;2022-10-12T10:25:28;13.40;;;3.40;;
64633;SDS011;51043;52.406;9.690;2022-10-12T10:28:19;12.57;;;3.33;;
64633;SDS011;51043;52.406;9.690;2022-10-12T10:34:03;10.13;;;3.35;;
64633;SDS011;51043;52.406;9.690;2022-10-12T10:39:31;10.93;;;3.10;;
64633;SDS011;51043;52.406;9.690;2022-10-12T10:42:08;11.75;;;3.00;;
64633;SDS011;51043;52.406;9.690;2022-10-12T10:44:37;9.98;;;2.97;;
64633;SDS011;51043;52.406;9.690;2022-10-12T10:47:08;14.52;;;3.53;;
64633;SDS011;51043;52.406;9.690;2022-10-12T10:49:53;10.98;;;3.15;;
64633;SDS011;51043;52.406;9.690;2022-10-12T10:57:36;10.57;;;3.47;;
64633;SDS011;51043;52.406;9.690;2022-10-12T11:00:10;16.42;;;3.08;;
64633;SDS011;51043;52.406;9.690;2022-10-12T11:03:04;10.25;;;2.92;;
64633;SDS011;51043;52.406;9.690;2022-10-12T11:06:13;7.70;;;3.25;;
64633;SDS011;51043;52.406;9.690;2022-10-12T11:08:58;10.73;;;2.85;;
64633;SDS011;51043;52.406;9.690;2022-10-12T11:11:31;10.60;;;2.95;;
64633;SDS011;51043;52.406;9.690;2022-10-12T11:14:11;9.05;;;2.78;;
64633;SDS011;51043;52.406;9.690;2022-10-12T11:16:47;9.98;;;2.90;;
64633;SDS011;51043;52.406;9.690;2022-10-12T11:22:03;13.48;;;3.45;;
64633;SDS011;51043;52.406;9.690;2022-10-12T11:24:42;10.60;;;3.00;;
64633;SDS011;51043;52.406;9.690;2022-10-12T11:27:35;10.05;;;2.67;;
64633;SDS011;51043;52.406;9.690;2022-10-12T11:30:23;8.70;;;2.80;;
64633;SDS011;51043;52.406;9.690;2022-10-12T11:32:53;7.75;;;2.70;;
64633;SDS011;51043;52.406;9.690;2022-10-12T11:35:28;7.65;;;2.70;;
64633;SDS011;51043;52.406;9.690;2022-10-12T11:38:00;7.60;;;2.53;;
64633;SDS011;51043;52.406;9.690;2022-10-12T11:40:46;10.07;;;2.92;;
64633;SDS011;51043;52.406;9.690;2022-10-12T11:43:42;9.98;;;2.92;;
64633;SDS011;51043;52.406;9.690;2022-10-12T11:46:17;10.07;;;3.15;;
64633;SDS011;51043;52.406;9.690;2022-10-12T11:48:55;7.80;;;2.67;;
64633;SDS011;51043;52.406;9.690;2022-10-12T11:51:30;10.85;;;2.75;;
64633;SDS011;51043;52.406;9.690;2022-10-12T11:56:46;7.88;;;2.80;;
64633;SDS011;51043;52.406;9.690;2022-10-12T12:02:28;12.25;;;3.10;;
64633;SDS011;51043;52.406;9.690;2022-10-12T12:05:04;8.60;;;3.03;;
64633;SDS011;51043;52.406;9.690;2022-10-12T12:07:43;9.20;;;3.03;;
64633;SDS011;51043;52.406;9.690;2022-10-12T12:16:19;9.25;;;2.90;;
64633;SDS011;51043;52.406;9.690;2022-10-12T12:24:49;11.15;;;3.08;;
64633;SDS011;51043;52.406;9.690;2022-10-12T12:30:23;16.15;;;3.28;;
64633;SDS011;51043;52.406;9.690;2022-10-12T12:32:57;9.93;;;3.33;;
64633;SDS011;51043;52.406;9.690;2022-10-12T12:35:32;14.55;;;3.20;;
64633;SDS011;51043;52.406;9.690;2022-10-12T12:38:06;10.93;;;2.92;;
64633;SDS011;51043;52.406;9.690;2022-10-12T12:40:37;9.55;;;3.00;;
64633;SDS011;51043;52.406;9.690;2022-10-12T12:43:18;10.10;;;2.55;;
64633;SDS011;51043;52.406;9.690;2022-10-12T12:45:53;6.50;;;2.20;;
64633;SDS011;51043;52.406;9.690;2022-10-12T12:51:15;10.52;;;2.58;;
64633;SDS011;51043;52.406;9.690;2022-10-12T12:53:59;7.13;;;2.00;;
64633;SDS011;51043;52.406;9.690;2022-10-12T13:16:18;7.25;;;2.33;;
64633;SDS011;51043;52.406;9.690;2022-10-12T13:19:14;15.27;;;2.75;;
64633;SDS011;51043;52.406;9.690;2022-10-12T13:21:46;9.18;;;2.30;;
64633;SDS011;51043;52.406;9.690;2022-10-12T13:24:16;11.95;;;2.83;;
64633;SDS011;51043;52.406;9.690;2022-10-12T13:27:31;7.70;;;2.40;;
64633;SDS011;51043;52.406;9.690;2022-10-12T13:30:12;7.50;;;2.47;;
64633;SDS011;51043;52.406;9.690;2022-10-12T13:32:54;6.87;;;2.43;;
64633;SDS011;51043;52.406;9.690;2022-10-12T13:35:37;7.80;;;2.22;;
64633;SDS011;51043;52.406;9.690;2022-10-12T13:40:42;7.32;;;2.08;;
64633;SDS011;51043;52.406;9.690;2022-10-12T13:49:08;10.55;;;2.55;;
64633;SDS011;51043;52.406;9.690;2022-10-12T13:51:50;7.50;;;1.98;;
64633;SDS011;51043;52.406;9.690;2022-10-12T13:54:23;6.30;;;2.08;;
64633;SDS011;51043;52.406;9.690;2022-10-12T13:56:56;6.70;;;2.40;;
64633;SDS011;51043;52.406;9.690;2022-10-12T13:59:27;12.25;;;2.90;;
64633;SDS011;51043;52.406;9.690;2022-10-12T14:02:00;13.30;;;2.57;;
64633;SDS011;51043;52.406;9.690;2022-10-12T14:04:31;9.18;;;2.67;;
64633;SDS011;51043;52.406;9.690;2022-10-12T14:07:01;5.50;;;2.30;;
64633;SDS011;51043;52.406;9.690;2022-10-12T14:10:15;6.93;;;2.15;;
64633;SDS011;51043;52.406;9.690;2022-10-12T14:12:23;10.70;;;2.00;;
64633;SDS011;51043;52.406;9.690;2022-10-12T14:14:53;8.97;;;2.93;;
64633;SDS011;51043;52.406;9.690;2022-10-12T14:17:20;8.50;;;2.17;;
64633;SDS011;51043;52.406;9.690;2022-10-12T14:19:49;7.65;;;2.65;;
64633;SDS011;51043;52.406;9.690;2022-10-12T14:22:28;9.75;;;2.63;;
64633;SDS011;51043;52.406;9.690;2022-10-12T14:27:40;6.70;;;2.20;;
64633;SDS011;51043;52.406;9.690;2022-10-12T14:30:15;7.50;;;2.40;;
64633;SDS011;51043;52.406;9.690;2022-10-12T14:32:48;7.47;;;2.27;;
64633;SDS011;51043;52.406;9.690;2022-10-12T14:35:20;11.00;;;2.50;;
64633;SDS011;51043;52.406;9.690;2022-10-12T14:37:49;9.37;;;2.40;;
64633;SDS011;51043;52.406;9.690;2022-10-12T14:40:26;8.50;;;2.23;;
64633;SDS011;51043;52.406;9.690;2022-10-12T14:42:56;6.90;;;2.27;;
64633;SDS011;51043;52.406;9.690;2022-10-12T14:45:25;8.87;;;2.43;;
64633;SDS011;51043;52.406;9.690;2022-10-12T14:47:52;8.50;;;2.43;;
64633;SDS011;51043;52.406;9.690;2022-10-12T14:50:19;9.50;;;2.20;;
64633;SDS011;51043;52.406;9.690;2022-10-12T14:52:49;5.90;;;2.10;;
64633;SDS011;51043;52.406;9.690;2022-10-12T14:55:20;8.07;;;2.33;;
64633;SDS011;51043;52.406;9.690;2022-10-12T14:57:52;7.53;;;2.53;;
64633;SDS011;51043;52.406;9.690;2022-10-12T15:00:24;8.10;;;2.30;;
64633;SDS011;51043;52.406;9.690;2022-10-12T15:02:55;9.60;;;2.50;;
64633;SDS011;51043;52.406;9.690;2022-10-12T15:05:24;7.97;;;3.30;;
64633;SDS011;51043;52.406;9.690;2022-10-12T15:07:54;10.25;;;2.78;;
64633;SDS011;51043;52.406;9.690;2022-10-12T15:10:21;9.03;;;3.00;;
64633;SDS011;51043;52.406;9.690;2022-10-12T15:12:51;8.73;;;2.50;;
64633;SDS011;51043;52.406;9.690;2022-10-12T15:18:17;13.10;;;2.80;;
64633;SDS011;51043;52.406;9.690;2022-10-12T15:20:45;11.97;;;2.80;;
64633;SDS011;51043;52.406;9.690;2022-10-12T15:23:14;11.53;;;2.80;;
64633;SDS011;51043;52.406;9.690;2022-10-12T15:25:55;7.23;;;2.37;;
64633;SDS011;51043;52.406;9.690;2022-10-12T15:28:25;11.20;;;2.88;;
64633;SDS011;51043;52.406;9.690;2022-10-12T15:30:55;10.70;;;2.70;;
64633;SDS011;51043;52.406;9.690;2022-10-12T15:33:41;9.10;;;2.53;;
64633;SDS011;51043;52.406;9.690;2022-10-12T15:36:09;10.47;;;2.80;;
64633;SDS011;51043;52.406;9.690;2022-10-12T15:38:36;10.67;;;3.60;;
64633;SDS011;51043;52.406;9.690;2022-10-12T15:41:03;10.87;;;3.10;;
64633;SDS011;51043;52.406;9.690;2022-10-12T15:43:30;9.53;;;2.57;;
64633;SDS011;51043;52.406;9.690;2022-10-12T15:45:57;10.17;;;3.23;;
64633;SDS011;51043;52.406;9.690;2022-10-12T15:48:27;10.17;;;3.53;;
64633;SDS011;51043;52.406;9.690;2022-10-12T15:50:54;12.80;;;3.50;;
64633;SDS011;51043;52.406;9.690;2022-10-12T15:53:22;8.03;;;3.00;;
64633;SDS011;51043;52.406;9.690;2022-10-12T15:55:51;6.43;;;2.83;;
64633;SDS011;51043;52.406;9.690;2022-10-12T15:58:19;7.17;;;3.03;;
64633;SDS011;51043;52.406;9.690;2022-10-12T16:00:46;9.37;;;3.73;;
64633;SDS011;51043;52.406;9.690;2022-10-12T16:03:14;7.13;;;2.67;;
64633;SDS011;51043;52.406;9.690;2022-10-12T16:05:46;11.57;;;3.33;;
64633;SDS011;51043;52.406;9.690;2022-10-12T16:08:13;12.93;;;3.10;;
64633;SDS011;51043;52.406;9.690;2022-10-12T16:10:41;8.87;;;3.13;;
64633;SDS011;51043;52.406;9.690;2022-10-12T16:13:10;12.50;;;3.23;;
64633;SDS011;51043;52.406;9.690;2022-10-12T16:15:38;8.27;;;2.63;;
64633;SDS011;51043;52.406;9.690;2022-10-12T16:18:07;8.87;;;2.70;;
64633;SDS011;51043;52.406;9.690;2022-10-12T16:20:35;8.20;;;3.20;;
64633;SDS011;51043;52.406;9.690;2022-10-12T16:23:13;8.07;;;3.57;;
64633;SDS011;51043;52.406;9.690;2022-10-12T16:25:45;9.17;;;2.67;;
64633;SDS011;51043;52.406;9.690;2022-10-12T16:28:12;14.43;;;3.70;;
64633;SDS011;51043;52.406;9.690;2022-10-12T16:30:39;9.97;;;3.10;;
64633;SDS011;51043;52.406;9.690;2022-10-12T16:33:07;14.33;;;3.63;;
64633;SDS011;51043;52.406;9.690;2022-10-12T16:35:33;11.20;;;3.37;;
64633;SDS011;51043;52.406;9.690;2022-10-12T16:38:00;11.17;;;3.13;;
64633;SDS011;51043;52.406;9.690;2022-10-12T16:40:27;7.53;;;3.13;;
64633;SDS011;51043;52.406;9.690;2022-10-12T16:42:54;9.97;;;3.00;;
64633;SDS011;51043;52.406;9.690;2022-10-12T16:45:23;11.10;;;3.03;;
64633;SDS011;51043;52.406;9.690;2022-10-12T16:47:50;9.90;;;3.10;;
64633;SDS011;51043;52.406;9.690;2022-10-12T16:50:19;9.30;;;2.73;;
64633;SDS011;51043;52.406;9.690;2022-10-12T16:52:47;9.33;;;3.13;;
64633;SDS011;51043;52.406;9.690;2022-10-12T16:55:15;14.97;;;3.20;;
64633;SDS011;51043;52.406;9.690;2022-10-12T16:57:42;11.10;;;3.47;;
64633;SDS011;51043;52.406;9.690;2022-10-12T17:00:10;11.83;;;3.17;;
64633;SDS011;51043;52.406;9.690;2022-10-12T17:02:39;10.60;;;3.33;;
64633;SDS011;51043;52.406;9.690;2022-10-12T17:05:06;11.13;;;3.40;;
64633;SDS011;51043;52.406;9.690;2022-10-12T17:07:33;8.53;;;3.07;;
64633;SDS011;51043;52.406;9.690;2022-10-12T17:10:00;9.53;;;3.70;;